Custer, Michigan
Current Conditions -  °F | °C
As of 5:35 AM on Sunday 26 Oct 2014 (Local Time) from KLDM Reporting Station
Clear Clear  
Wind Chill: 46°   Ceiling: Unl
Heat Index: 47°   Visibility: 10mi
Dew Point: 36°   Wind: 5mph
Humidity: 64%   Direction: 320°NW
Pressure: 29.93"   Gusts: NA
Location:  43.95°N, 86.22°W
Report Text: KLDM 260935Z AUTO 32004KT 10SM CLR 09/02 A2993 RMK AO2 T00860021
Loading
Personal Weather Stations






























Interactive Weather Map
Tropical Storm Tracking
New forecast layout! Learn more

10-Day Weather Forecast

Advertisements
Track Severe Weather on mobile